createdAt,value
2022-10-20T00:00:26.611Z,43.54
2022-10-20T00:02:56.855Z,43.72
2022-10-20T00:05:26.962Z,44.72
2022-10-20T00:07:57.138Z,43.15
2022-10-20T00:10:27.346Z,43.14
2022-10-20T00:12:57.442Z,44.53
2022-10-20T00:15:27.771Z,44.86
2022-10-20T00:17:57.918Z,43.18
2022-10-20T00:20:28.023Z,43.25
2022-10-20T00:22:58.172Z,44.75
2022-10-20T00:25:28.497Z,43.25
2022-10-20T00:27:58.605Z,43.23
2022-10-20T00:30:28.138Z,43.44
2022-10-20T00:32:58.268Z,42.99
2022-10-20T00:35:28.725Z,43.13
2022-10-20T00:37:59.460Z,42.88
2022-10-20T00:40:29.686Z,42.99
2022-10-20T00:42:59.899Z,43.30
2022-10-20T00:45:30.443Z,43.10
2022-10-20T00:48:08.925Z,42.92
2022-10-20T00:50:45.512Z,42.90
2022-10-20T00:53:15.938Z,42.79
2022-10-20T00:55:49.742Z,42.13
2022-10-20T00:58:21.384Z,43.10
2022-10-20T01:00:59.005Z,42.85
2022-10-20T01:03:59.880Z,42.21
2022-10-20T01:06:30.505Z,42.24
2022-10-20T01:09:01.760Z,42.01
2022-10-20T01:12:07.753Z,41.98
2022-10-20T01:14:52.407Z,42.19
2022-10-20T01:17:37.651Z,42.28
2022-10-20T01:20:26.441Z,41.79
2022-10-20T01:23:11.483Z,41.71
2022-10-20T01:26:07.174Z,42.33
2022-10-20T01:28:48.339Z,42.20
2022-10-20T01:31:51.896Z,41.51
2022-10-20T01:34:40.165Z,42.70
2022-10-20T01:37:49.031Z,42.44
2022-10-20T01:40:23.096Z,42.94
2022-10-20T01:42:57.076Z,42.50
2022-10-20T01:45:32.413Z,41.73
2022-10-20T01:48:07.608Z,42.23
2022-10-20T01:50:40.203Z,41.65
2022-10-20T01:53:10.940Z,41.67
2022-10-20T01:55:42.470Z,41.70
2022-10-20T01:58:58.549Z,42.05
2022-10-20T02:01:50.342Z,41.99
2022-10-20T02:04:46.319Z,42.78
2022-10-20T02:07:26.757Z,41.60
2022-10-20T02:10:07.795Z,41.76
2022-10-20T02:12:43.919Z,41.51
2022-10-20T02:15:21.432Z,41.33
2022-10-20T02:17:57.044Z,42.19
2022-10-20T02:20:27.980Z,42.10
2022-10-20T02:23:00.700Z,42.23
2022-10-20T02:25:32.993Z,41.94
2022-10-20T02:28:06.574Z,41.50
2022-10-20T02:30:39.154Z,41.38
2022-10-20T02:33:10.617Z,41.69
2022-10-20T02:35:44.205Z,42.10
2022-10-20T02:38:14.823Z,41.87
2022-10-20T02:40:45.055Z,41.88
2022-10-20T02:43:15.505Z,41.08
2022-10-20T02:45:46.832Z,41.93
2022-10-20T02:48:17.282Z,41.41
2022-10-20T02:50:47.687Z,41.60
2022-10-20T02:53:17.769Z,41.45
2022-10-20T02:55:47.987Z,41.12
2022-10-20T02:58:18.683Z,41.29
2022-10-20T03:00:50.676Z,41.52
2022-10-20T03:03:21.591Z,41.14
2022-10-20T03:05:52.144Z,41.55
2022-10-20T03:08:23.024Z,41.33
2022-10-20T03:10:53.408Z,41.09
2022-10-20T03:13:23.573Z,41.29
2022-10-20T03:15:53.822Z,40.73
2022-10-20T03:18:24.869Z,41.06
2022-10-20T03:20:56.589Z,41.03
2022-10-20T03:23:26.839Z,41.47
2022-10-20T03:26:02.749Z,41.07
2022-10-20T03:28:33.563Z,41.13
2022-10-20T03:31:04.263Z,40.61
2022-10-20T03:33:34.898Z,40.20
2022-10-20T03:36:05.564Z,40.34
2022-10-20T03:38:36.200Z,40.53
2022-10-20T03:41:06.650Z,40.98
2022-10-20T03:43:36.980Z,41.12
2022-10-20T03:46:10.497Z,40.69
2022-10-20T03:48:41.693Z,40.96
2022-10-20T03:51:15.118Z,40.63
2022-10-20T03:53:46.069Z,40.63
2022-10-20T03:56:20.961Z,41.03
2022-10-20T03:58:51.547Z,41.14
2022-10-20T04:01:26.385Z,41.32
2022-10-20T04:03:56.983Z,40.78
2022-10-20T04:06:27.463Z,40.69
2022-10-20T04:08:57.630Z,41.47
2022-10-20T04:11:28.489Z,40.96
2022-10-20T04:13:59.745Z,41.35
2022-10-20T04:16:30.399Z,41.23
2022-10-20T04:19:00.841Z,41.16
2022-10-20T04:21:31.083Z,40.84
2022-10-20T04:24:01.676Z,41.17
2022-10-20T04:26:31.844Z,41.18
2022-10-20T04:29:01.888Z,41.34
2022-10-20T04:31:32.386Z,40.81
2022-10-20T04:34:02.062Z,40.84
2022-10-20T04:36:32.141Z,40.90
2022-10-20T04:39:02.144Z,41.13
2022-10-20T04:41:32.242Z,40.65
2022-10-20T04:44:02.369Z,40.69
2022-10-20T04:46:32.551Z,40.69
2022-10-20T04:49:02.841Z,40.96
2022-10-20T04:51:33.620Z,41.07
2022-10-20T04:56:39.761Z,40.58
2022-10-20T04:59:12.733Z,41.34
2022-10-20T05:01:44.735Z,40.72
2022-10-20T05:04:15.465Z,40.78
2022-10-20T05:06:46.201Z,40.49
2022-10-20T05:09:17.275Z,40.80
2022-10-20T05:11:48.118Z,40.57
2022-10-20T05:14:19.023Z,40.72
2022-10-20T05:16:49.296Z,40.95
2022-10-20T05:19:20.112Z,40.27
2022-10-20T05:21:50.594Z,40.82
2022-10-20T05:24:22.159Z,40.70
2022-10-20T05:26:56.518Z,40.01
2022-10-20T05:29:27.150Z,40.62
2022-10-20T05:31:56.892Z,40.73
2022-10-20T05:34:27.039Z,40.72
2022-10-20T05:36:57.121Z,40.28
2022-10-20T05:39:27.249Z,40.39
2022-10-20T05:41:57.433Z,40.01
2022-10-20T05:44:27.478Z,39.76
2022-10-20T05:46:57.763Z,40.00
2022-10-20T05:49:27.988Z,39.97
2022-10-20T05:51:59.074Z,40.17
2022-10-20T05:54:28.716Z,39.88
2022-10-20T05:56:58.814Z,39.86
2022-10-20T05:59:29.387Z,40.75
2022-10-20T06:02:00.262Z,40.78
2022-10-20T06:04:30.576Z,41.01
2022-10-20T06:07:01.097Z,40.11
2022-10-20T06:09:31.343Z,40.78
2022-10-20T06:12:00.922Z,39.98
2022-10-20T06:14:31.088Z,40.12
2022-10-20T06:17:01.471Z,39.79
2022-10-20T06:19:31.000Z,39.77
2022-10-20T06:22:04.011Z,39.94
2022-10-20T06:24:37.972Z,40.39
2022-10-20T06:27:08.220Z,40.07
2022-10-20T06:29:38.493Z,39.97
2022-10-20T06:32:08.772Z,40.10
2022-10-20T06:34:38.875Z,40.05
2022-10-20T06:37:11.039Z,39.80
2022-10-20T06:39:41.320Z,39.70
2022-10-20T06:42:12.341Z,39.59
2022-10-20T06:44:48.102Z,39.76
2022-10-20T06:47:19.193Z,39.71
2022-10-20T06:49:52.603Z,39.68
2022-10-20T06:52:23.091Z,39.35
2022-10-20T06:54:53.930Z,39.51
2022-10-20T06:57:24.541Z,39.70
2022-10-20T06:59:54.678Z,39.92
2022-10-20T07:02:24.759Z,39.59
2022-10-20T07:04:54.850Z,39.37
2022-10-20T07:07:25.034Z,39.69
2022-10-20T07:09:56.676Z,39.42
2022-10-20T07:12:26.936Z,39.70
2022-10-20T07:14:57.376Z,39.79
2022-10-20T07:17:27.504Z,39.84
2022-10-20T07:19:57.658Z,39.51
2022-10-20T07:22:27.762Z,40.08
2022-10-20T07:24:57.842Z,39.73
2022-10-20T07:27:28.073Z,39.68
2022-10-20T07:29:58.708Z,40.24
2022-10-20T07:32:28.737Z,39.86
2022-10-20T07:34:58.858Z,39.42
2022-10-20T07:37:29.126Z,39.15
2022-10-20T07:40:00.144Z,39.48
2022-10-20T07:42:32.902Z,39.22
2022-10-20T07:45:02.637Z,39.54
2022-10-20T07:47:38.111Z,39.65
2022-10-20T07:50:11.215Z,39.31
2022-10-20T07:52:41.896Z,39.31
2022-10-20T07:55:33.494Z,38.97
2022-10-20T07:58:02.855Z,39.58
2022-10-20T08:00:33.136Z,39.79
2022-10-20T08:03:03.519Z,40.12
2022-10-20T08:05:33.614Z,40.45
2022-10-20T08:08:03.710Z,40.58
2022-10-20T08:10:33.778Z,40.46
2022-10-20T08:13:03.838Z,40.63
2022-10-20T08:15:34.063Z,40.92
2022-10-20T08:18:04.960Z,40.33
2022-10-20T08:20:35.659Z,40.85
2022-10-20T08:23:06.277Z,41.20
2022-10-20T08:25:37.240Z,40.91
2022-10-20T08:28:08.492Z,40.77
2022-10-20T08:30:40.504Z,40.78
2022-10-20T08:33:11.256Z,40.70
2022-10-20T08:35:41.506Z,40.83
2022-10-20T08:38:11.605Z,40.76
2022-10-20T08:40:45.328Z,40.94
2022-10-20T08:43:22.720Z,40.87
2022-10-20T08:45:52.973Z,41.36
2022-10-20T08:48:29.563Z,41.47
2022-10-20T08:51:00.209Z,41.18
2022-10-20T08:53:38.181Z,41.23
2022-10-20T08:56:08.778Z,41.66
2022-10-20T08:58:43.206Z,41.99
2022-10-20T09:01:32.288Z,41.33
2022-10-20T09:04:14.531Z,41.38
2022-10-20T09:06:47.742Z,41.64
2022-10-20T09:09:24.773Z,42.27
2022-10-20T09:12:04.192Z,42.10
2022-10-20T09:14:38.691Z,41.86
2022-10-20T09:17:18.142Z,41.96
2022-10-20T09:19:54.501Z,42.99
2022-10-20T09:22:34.784Z,42.40
2022-10-20T09:25:07.181Z,42.68
2022-10-20T09:27:44.378Z,42.70
2022-10-20T09:30:27.367Z,42.52
2022-10-20T09:32:57.972Z,43.16
2022-10-20T09:35:31.220Z,43.24
2022-10-20T09:38:12.232Z,42.43
2022-10-20T09:41:12.242Z,42.50
2022-10-20T09:44:10.449Z,43.28
2022-10-20T09:46:41.693Z,44.02
2022-10-20T09:49:31.175Z,43.29
2022-10-20T09:52:04.484Z,43.32
2022-10-20T09:54:34.963Z,43.82
2022-10-20T09:57:17.181Z,43.53
2022-10-20T09:59:50.997Z,44.55
2022-10-20T10:02:21.529Z,44.20
2022-10-20T10:04:55.239Z,44.25
2022-10-20T10:07:30.254Z,43.70
2022-10-20T10:10:08.451Z,43.69
2022-10-20T10:12:40.151Z,43.91
2022-10-20T10:15:31.002Z,43.70
2022-10-20T10:18:02.499Z,44.69
2022-10-20T10:20:41.208Z,44.24
2022-10-20T10:23:20.204Z,44.32
2022-10-20T10:25:52.090Z,44.88
2022-10-20T10:28:39.746Z,43.95
2022-10-20T10:31:20.440Z,44.09
2022-10-20T10:34:23.045Z,44.30
2022-10-20T10:36:53.177Z,44.51
2022-10-20T10:39:23.768Z,44.62
2022-10-20T10:42:15.090Z,44.04
2022-10-20T10:44:57.124Z,44.79
2022-10-20T10:48:05.023Z,44.59
2022-10-20T10:50:41.432Z,45.43
2022-10-20T10:53:42.486Z,44.90
2022-10-20T10:56:35.497Z,44.70
2022-10-20T10:59:14.858Z,45.51
2022-10-20T11:01:48.892Z,46.35
2022-10-20T11:04:50.194Z,44.73
2022-10-20T11:07:41.897Z,44.99
2022-10-20T11:10:27.158Z,45.15
2022-10-20T11:13:26.037Z,45.64
2022-10-20T11:16:03.554Z,45.20
2022-10-20T11:18:58.191Z,44.57
2022-10-20T11:22:01.063Z,44.87
2022-10-20T11:24:50.778Z,44.72
2022-10-20T11:27:35.817Z,45.61
2022-10-20T11:30:24.566Z,45.08
2022-10-20T11:33:14.326Z,45.00
2022-10-20T11:36:06.357Z,45.43
2022-10-20T11:38:51.828Z,45.59
2022-10-20T11:41:47.425Z,45.21
2022-10-20T11:44:42.209Z,45.09
2022-10-20T11:47:20.789Z,45.42
2022-10-20T11:49:51.161Z,45.87
2022-10-20T11:52:48.423Z,44.97
2022-10-20T11:55:34.265Z,45.42
2022-10-20T11:58:29.711Z,45.25
2022-10-20T12:01:30.749Z,45.77
2022-10-20T12:04:22.209Z,45.92
2022-10-20T12:07:18.353Z,45.51
2022-10-20T12:09:54.378Z,46.59
2022-10-20T12:12:32.472Z,45.51
2022-10-20T12:15:05.155Z,46.82
2022-10-20T12:17:44.609Z,47.15
2022-10-20T12:20:23.911Z,45.94
2022-10-20T12:22:56.994Z,45.84
2022-10-20T12:25:33.282Z,45.69
2022-10-20T12:28:24.930Z,44.83
2022-10-20T12:31:03.365Z,45.56
2022-10-20T12:33:43.629Z,45.74
2022-10-20T12:36:19.665Z,45.50
2022-10-20T12:38:56.679Z,45.19
2022-10-20T12:41:36.361Z,46.38
2022-10-20T12:44:19.402Z,45.69
2022-10-20T12:47:21.441Z,44.85
2022-10-20T12:50:09.261Z,44.49
2022-10-20T12:52:42.358Z,44.65
2022-10-20T12:55:21.006Z,44.92
2022-10-20T12:57:51.565Z,45.59
2022-10-20T13:00:21.980Z,45.83
2022-10-20T13:02:52.798Z,46.78
2022-10-20T13:05:41.524Z,47.62
2022-10-20T13:08:25.353Z,47.12
2022-10-20T13:10:56.480Z,47.43
2022-10-20T13:16:08.053Z,47.47
2022-10-20T13:18:47.130Z,47.10
2022-10-20T13:21:30.899Z,47.61
2022-10-20T13:24:03.918Z,48.14
2022-10-20T13:26:47.089Z,47.57
2022-10-20T13:29:38.457Z,46.91
2022-10-20T13:32:54.036Z,47.25
2022-10-20T13:35:49.101Z,47.00
2022-10-20T13:38:30.676Z,47.90
2022-10-20T13:41:16.019Z,47.15
2022-10-20T13:44:29.144Z,47.24
2022-10-20T13:47:10.959Z,47.15
2022-10-20T13:49:52.936Z,48.50
2022-10-20T13:52:24.267Z,47.74
2022-10-20T13:54:55.506Z,48.71
2022-10-20T13:57:36.088Z,47.61
2022-10-20T14:00:26.398Z,47.09
2022-10-20T14:03:01.630Z,47.88
2022-10-20T14:05:39.533Z,47.54
2022-10-20T14:08:17.125Z,47.32
2022-10-20T14:10:54.983Z,46.96
2022-10-20T14:13:32.419Z,46.98
2022-10-20T14:16:07.112Z,47.84
2022-10-20T14:18:41.190Z,48.08
2022-10-20T14:21:21.225Z,47.90
2022-10-20T14:23:52.860Z,47.93
2022-10-20T14:26:25.758Z,48.15
2022-10-20T14:28:56.732Z,49.99
2022-10-20T14:31:27.669Z,49.15
2022-10-20T14:33:58.206Z,48.66
2022-10-20T14:36:31.854Z,50.98
2022-10-20T14:39:05.755Z,48.03
2022-10-20T14:41:38.360Z,48.31
2022-10-20T14:44:30.170Z,48.44
2022-10-20T14:47:08.774Z,49.29
2022-10-20T14:49:45.544Z,48.99
2022-10-20T14:52:21.998Z,48.96
2022-10-20T14:54:54.184Z,48.57
2022-10-20T14:57:28.254Z,48.21
2022-10-20T15:00:05.093Z,48.35
2022-10-20T15:02:40.162Z,48.61
2022-10-20T15:05:46.762Z,47.88
2022-10-20T15:08:28.391Z,47.82
2022-10-20T15:11:00.257Z,48.78
2022-10-20T15:13:37.225Z,48.51
2022-10-20T15:16:09.322Z,49.76
2022-10-20T15:18:40.175Z,48.53
2022-10-20T15:21:13.523Z,50.06
2022-10-20T15:23:43.992Z,49.96
2022-10-20T15:26:17.040Z,49.56
2022-10-20T15:28:49.017Z,48.77
2022-10-20T15:31:28.575Z,48.07
2022-10-20T15:34:00.574Z,48.59
2022-10-20T15:36:41.936Z,48.47
2022-10-20T15:39:13.539Z,48.72
2022-10-20T15:41:44.371Z,48.32
2022-10-20T15:44:24.569Z,48.32
2022-10-20T15:46:55.602Z,49.39
2022-10-20T15:49:25.902Z,50.44
2022-10-20T15:51:56.640Z,49.53
2022-10-20T15:54:27.170Z,49.36
2022-10-20T15:56:57.943Z,49.26
2022-10-20T15:59:28.873Z,48.69
2022-10-20T16:01:59.150Z,48.64
2022-10-20T16:04:30.007Z,48.53
2022-10-20T16:07:03.014Z,50.56
2022-10-20T16:09:33.785Z,49.01
2022-10-20T16:12:04.122Z,49.36
2022-10-20T16:14:36.158Z,48.96
2022-10-20T16:17:06.800Z,49.02
2022-10-20T16:19:36.897Z,48.85
2022-10-20T16:22:07.002Z,48.03
2022-10-20T16:24:37.666Z,49.16
2022-10-20T16:27:07.936Z,49.50
2022-10-20T16:29:38.510Z,49.33
2022-10-20T16:32:09.061Z,49.12
2022-10-20T16:34:39.955Z,49.11
2022-10-20T16:37:10.810Z,49.84
2022-10-20T16:39:41.252Z,49.72
2022-10-20T16:42:12.172Z,50.09
2022-10-20T16:44:42.948Z,50.05
2022-10-20T16:47:13.537Z,50.15
2022-10-20T16:49:43.671Z,49.64
2022-10-20T16:52:13.781Z,49.74
2022-10-20T16:54:43.981Z,49.91
2022-10-20T16:57:15.896Z,48.96
2022-10-20T16:59:51.375Z,49.24
2022-10-20T17:02:22.369Z,49.30
2022-10-20T17:04:53.514Z,49.25
2022-10-20T17:07:24.150Z,49.25
2022-10-20T17:09:54.354Z,49.09
2022-10-20T17:12:24.623Z,49.23
2022-10-20T17:14:55.024Z,49.24
2022-10-20T17:17:25.405Z,49.22
2022-10-20T17:19:55.582Z,49.53
2022-10-20T17:22:25.716Z,49.80
2022-10-20T17:24:55.088Z,50.13
2022-10-20T17:27:25.191Z,50.00
2022-10-20T17:29:55.299Z,49.59
2022-10-20T17:32:25.378Z,49.71
2022-10-20T17:34:55.745Z,50.24
2022-10-20T17:37:25.919Z,50.07
2022-10-20T17:39:56.203Z,49.83
2022-10-20T17:42:26.310Z,49.71
2022-10-20T17:44:56.487Z,49.80
2022-10-20T17:47:26.664Z,50.53
2022-10-20T17:49:56.855Z,50.08
2022-10-20T17:52:26.931Z,51.07
2022-10-20T17:54:57.532Z,50.90
2022-10-20T17:57:27.775Z,50.22
2022-10-20T17:59:59.352Z,50.39
2022-10-20T18:02:35.683Z,52.43
2022-10-20T18:05:07.196Z,51.25
2022-10-20T18:07:37.005Z,51.20
2022-10-20T18:10:07.712Z,51.99
2022-10-20T18:12:38.511Z,50.84
2022-10-20T18:15:09.865Z,51.05
2022-10-20T18:17:40.001Z,51.08
2022-10-20T18:20:12.625Z,51.25
2022-10-20T18:22:43.347Z,50.11
2022-10-20T18:25:13.677Z,51.08
2022-10-20T18:27:43.783Z,51.12
2022-10-20T18:30:13.982Z,51.06
2022-10-20T18:32:44.608Z,50.59
2022-10-20T18:35:14.795Z,50.96
2022-10-20T18:37:46.312Z,51.07
2022-10-20T18:40:17.486Z,51.17
2022-10-20T18:42:47.729Z,50.27
2022-10-20T18:45:20.327Z,49.90
2022-10-20T18:47:52.995Z,51.04
2022-10-20T18:50:24.072Z,51.07
2022-10-20T18:52:54.474Z,51.14
2022-10-20T18:55:23.889Z,51.23
2022-10-20T18:57:53.903Z,50.27
2022-10-20T19:00:24.411Z,50.54
2022-10-20T19:02:56.897Z,52.60
2022-10-20T19:05:29.795Z,51.22
2022-10-20T19:07:59.826Z,50.00
2022-10-20T19:10:29.935Z,50.97
2022-10-20T19:13:00.600Z,51.92
2022-10-20T19:15:30.819Z,51.15
2022-10-20T19:18:01.754Z,50.74
2022-10-20T19:20:32.961Z,50.72
2022-10-20T19:23:03.500Z,50.23
2022-10-20T19:25:34.833Z,50.11
2022-10-20T19:28:05.776Z,50.04
2022-10-20T19:30:37.606Z,50.84
2022-10-20T19:33:08.213Z,52.19
2022-10-20T19:35:38.601Z,50.22
2022-10-20T19:38:08.735Z,50.63
2022-10-20T19:40:38.919Z,50.74
2022-10-20T19:43:08.622Z,50.72
2022-10-20T19:45:38.842Z,49.67
2022-10-20T19:48:09.052Z,49.83
2022-10-20T19:50:39.495Z,52.77
2022-10-20T19:53:09.579Z,52.57
2022-10-20T19:55:39.803Z,50.89
2022-10-20T20:00:47.527Z,49.92
2022-10-20T20:03:17.674Z,50.59
2022-10-20T20:05:48.413Z,50.09
2022-10-20T20:08:19.167Z,50.12
2022-10-20T20:10:54.368Z,49.55
2022-10-20T20:13:25.400Z,50.90
2022-10-20T20:15:55.573Z,50.73
2022-10-20T20:18:26.257Z,52.94
2022-10-20T20:20:56.424Z,50.81
2022-10-20T20:23:40.822Z,50.57
2022-10-20T20:26:16.724Z,50.01
2022-10-20T20:28:46.900Z,50.70
2022-10-20T20:31:17.129Z,50.96
2022-10-20T20:33:47.426Z,50.21
2022-10-20T20:36:17.742Z,50.36
2022-10-20T20:38:48.155Z,51.33
2022-10-20T20:41:20.505Z,50.99
2022-10-20T20:43:50.530Z,51.07
2022-10-20T20:46:23.866Z,50.69
2022-10-20T20:48:54.124Z,51.37
2022-10-20T20:51:24.531Z,51.50
2022-10-20T20:53:54.661Z,51.30
2022-10-20T20:56:27.031Z,52.02
2022-10-20T20:58:57.247Z,51.70
2022-10-20T21:01:29.350Z,50.64
2022-10-20T21:04:02.126Z,51.24
2022-10-20T21:06:49.383Z,52.47
2022-10-20T21:09:23.731Z,52.07
2022-10-20T21:11:53.912Z,52.58
2022-10-20T21:14:24.120Z,53.20
2022-10-20T21:16:54.224Z,52.39
2022-10-20T21:19:24.667Z,52.24
2022-10-20T21:22:02.679Z,52.63
2022-10-20T21:24:32.796Z,51.95
2022-10-20T21:27:02.819Z,51.95
2022-10-20T21:29:32.975Z,52.00
2022-10-20T21:32:03.078Z,51.00
2022-10-20T21:34:33.148Z,52.48
2022-10-20T21:37:03.280Z,51.30
2022-10-20T21:39:33.321Z,54.03
2022-10-20T21:42:03.668Z,50.23
2022-10-20T21:44:33.924Z,51.44
2022-10-20T21:47:04.107Z,51.23
2022-10-20T21:49:35.164Z,52.04
2022-10-20T21:52:05.336Z,51.73
2022-10-20T21:54:35.397Z,52.14
2022-10-20T21:57:05.603Z,51.50
2022-10-20T21:59:35.740Z,50.22
2022-10-20T22:02:06.655Z,51.46
2022-10-20T22:04:36.715Z,50.72
2022-10-20T22:07:06.885Z,50.84
2022-10-20T22:09:37.076Z,51.14
2022-10-20T22:12:07.571Z,51.94
2022-10-20T22:14:37.772Z,51.21
2022-10-20T22:17:07.931Z,51.23
2022-10-20T22:19:38.093Z,51.71
2022-10-20T22:22:08.385Z,51.80
2022-10-20T22:24:38.551Z,52.13
2022-10-20T22:27:15.591Z,52.48
2022-10-20T22:29:57.615Z,51.94
2022-10-20T22:32:28.255Z,52.11
2022-10-20T22:34:58.362Z,52.60
2022-10-20T22:37:28.676Z,54.51
2022-10-20T22:39:58.777Z,51.19
2022-10-20T22:42:28.887Z,52.90
2022-10-20T22:44:59.023Z,52.62
2022-10-20T22:47:29.561Z,52.10
2022-10-20T22:49:59.598Z,51.44
2022-10-20T22:52:30.001Z,52.49
2022-10-20T22:55:00.784Z,53.01
2022-10-20T22:57:31.019Z,52.52
2022-10-20T23:00:01.721Z,53.27
2022-10-20T23:02:32.025Z,51.98
2022-10-20T23:05:02.864Z,51.61
2022-10-20T23:07:33.140Z,53.23
2022-10-20T23:10:05.349Z,52.73
2022-10-20T23:12:36.777Z,52.75
2022-10-20T23:15:08.616Z,53.02
2022-10-20T23:17:39.350Z,53.75
2022-10-20T23:20:10.716Z,52.28
2022-10-20T23:22:41.007Z,53.26
2022-10-20T23:25:11.771Z,52.20
2022-10-20T23:27:42.086Z,51.82
2022-10-20T23:30:13.025Z,51.39
2022-10-20T23:32:43.425Z,51.71
2022-10-20T23:35:13.530Z,51.75
2022-10-20T23:37:43.724Z,51.09
2022-10-20T23:40:14.247Z,51.94
2022-10-20T23:42:44.878Z,51.79
2022-10-20T23:45:14.955Z,51.73
2022-10-20T23:47:45.729Z,51.64
2022-10-20T23:50:17.883Z,50.67
2022-10-20T23:52:49.279Z,50.81
2022-10-20T23:55:19.733Z,51.71
2022-10-20T23:57:52.316Z,50.68
